Time;durP1;ratioP1;P1;durP2;ratioP2;P2;SDS_P1;SDS_P2;PMS_P1;PMS_P2;Temp;Humidity;BMP_temperature;BMP_pressure;BME280_temperature;BME280_humidity;BME280_pressure;Samples;Min_cycle;Max_cycle;Signal;HPM_P1;HPM_P2
2023/07/20 00:00:28;;;;;;;1.30;1.07;;;18.50;90.40;;;18.49;62.13;100639.13;5074603;28;20196;-73
2023/07/20 00:03:19;;;;;;;1.40;1.30;;;18.60;90.30;;;18.34;62.33;100638.59;5074592;28;20225;-74
2023/07/20 00:05:51;;;;;;;1.67;1.17;;;18.40;90.50;;;18.34;62.60;100643.16;5074501;28;20229;-73
2023/07/20 00:08:23;;;;;;;1.57;1.10;;;18.40;90.50;;;18.35;62.80;100645.69;5074510;28;20213;-73
2023/07/20 00:10:57;;;;;;;1.17;1.00;;;18.40;90.60;;;18.37;62.77;100650.88;5074105;28;20225;-72
2023/07/20 00:13:29;;;;;;;1.30;0.90;;;18.50;90.60;;;18.29;63.08;100643.00;5074094;28;20641;-73
2023/07/20 00:16:00;;;;;;;1.83;1.20;;;18.30;90.90;;;18.14;63.59;100643.22;5074175;28;20604;-73
2023/07/20 00:18:32;;;;;;;3.00;1.10;;;18.20;91.10;;;18.06;63.91;100635.31;5073923;28;20206;-73
2023/07/20 00:21:04;;;;;;;1.37;1.10;;;18.10;91.50;;;18.06;63.88;100638.84;5074225;28;20284;-73
2023/07/20 00:23:36;;;;;;;1.30;1.20;;;18.10;91.60;;;17.98;64.31;100635.56;5074233;28;20276;-73
2023/07/20 00:26:09;;;;;;;1.63;1.13;;;18.00;91.60;;;17.95;64.18;100627.81;5073728;28;20713;-73
2023/07/20 00:28:41;;;;;;;0.80;0.80;;;18.00;92.20;;;17.90;64.27;100624.94;5074162;28;20200;-73
2023/07/20 00:31:13;;;;;;;2.23;1.10;;;18.00;91.90;;;17.89;64.51;100634.94;5074024;28;20623;-73
2023/07/20 00:33:45;;;;;;;1.53;1.20;;;17.90;92.00;;;17.95;64.70;100635.94;5073890;28;20209;-73
2023/07/20 00:36:17;;;;;;;1.30;1.13;;;18.00;92.20;;;17.90;64.78;100635.75;5073944;28;20316;-73
2023/07/20 00:38:49;;;;;;;1.33;1.17;;;18.00;92.00;;;17.89;64.61;100632.22;5073915;28;20194;-74
2023/07/20 00:41:22;;;;;;;2.40;1.13;;;17.90;92.20;;;17.83;64.21;100624.94;5073922;28;20190;-74
2023/07/20 00:43:56;;;;;;;1.50;1.10;;;18.00;92.10;;;17.89;64.04;100629.50;5073528;28;20300;-74
2023/07/20 00:46:28;;;;;;;1.63;1.17;;;17.90;92.10;;;17.87;63.67;100631.59;5073783;28;20287;-73
2023/07/20 00:49:02;;;;;;;1.30;1.20;;;18.00;92.00;;;17.80;65.05;100625.38;5073788;28;20239;-74
2023/07/20 00:51:34;;;;;;;1.30;1.20;;;17.90;91.90;;;17.86;64.58;100624.53;5073775;28;20197;-74
2023/07/20 00:54:06;;;;;;;1.93;1.13;;;17.90;92.30;;;17.81;64.38;100615.38;5073655;28;20301;-74
2023/07/20 00:56:43;;;;;;;1.17;1.10;;;17.90;92.30;;;17.85;64.47;100622.00;5073647;28;20315;-74
2023/07/20 00:59:15;;;;;;;1.27;1.17;;;17.90;92.20;;;17.83;64.04;100624.94;5073659;28;20243;-73
2023/07/20 01:01:48;;;;;;;1.20;1.10;;;17.90;92.30;;;17.87;64.48;100620.78;5073635;28;20192;-73
2023/07/20 01:04:21;;;;;;;1.53;1.30;;;18.00;92.00;;;17.74;64.84;100621.59;5073380;28;20700;-72
2023/07/20 01:07:03;;;;;;;1.20;1.10;;;17.80;92.10;;;17.74;64.58;100627.00;5073499;28;20325;-72
2023/07/20 01:09:45;;;;;;;1.30;1.20;;;17.80;92.20;;;17.70;64.07;100612.25;5073639;28;20226;-73
2023/07/20 01:12:26;;;;;;;1.93;1.10;;;17.80;92.20;;;17.63;64.98;100624.97;5073218;28;20704;-73
2023/07/20 01:14:58;;;;;;;2.07;1.30;;;17.70;92.50;;;17.60;64.37;100625.34;5073471;28;20209;-73
2023/07/20 01:17:30;;;;;;;1.47;1.33;;;17.60;92.60;;;17.67;64.84;100612.66;5073456;28;20233;-73
2023/07/20 01:20:03;;;;;;;1.17;1.07;;;17.80;92.30;;;17.60;64.90;100619.13;5073268;28;20703;-73
2023/07/20 01:23:01;;;;;;;1.40;1.00;;;17.70;92.30;;;17.60;64.37;100633.47;5073465;28;20236;-73
2023/07/20 01:26:09;;;;;;;1.20;1.10;;;17.70;92.50;;;17.44;65.34;100624.91;5072985;28;20225;-73
2023/07/20 01:29:10;;;;;;;1.30;1.20;;;17.50;92.60;;;17.41;65.31;100626.16;5073528;28;20192;-73
2023/07/20 01:31:45;;;;;;;1.10;1.00;;;17.40;92.90;;;17.43;64.75;100624.06;5073076;28;20614;-72
2023/07/20 01:34:24;;;;;;;1.97;1.40;;;17.60;92.80;;;17.37;65.80;100626.78;5073276;28;20213;-73
2023/07/20 01:36:58;;;;;;;1.30;1.20;;;17.40;92.90;;;17.36;65.36;100628.69;5073273;28;20315;-72
2023/07/20 01:39:31;;;;;;;1.33;1.00;;;17.40;92.90;;;17.45;65.47;100629.28;5073340;28;20212;-72
2023/07/20 01:42:03;;;;;;;2.40;1.20;;;17.60;92.70;;;17.26;65.85;100632.81;5072874;28;20285;-72
2023/07/20 01:44:35;;;;;;;2.30;1.10;;;17.40;93.00;;;17.26;65.22;100632.81;5076232;28;20201;-72
2023/07/20 01:47:09;;;;;;;1.20;1.10;;;17.40;93.10;;;17.22;66.08;100624.28;5077126;28;20224;-72
2023/07/20 01:49:41;;;;;;;1.77;1.20;;;17.30;93.30;;;17.20;66.04;100626.34;5077188;28;20240;-73
2023/07/20 01:52:13;;;;;;;2.13;1.30;;;17.30;93.40;;;17.17;65.75;100633.00;5076841;28;20685;-73
2023/07/20 01:54:44;;;;;;;2.30;1.27;;;17.30;93.40;;;17.18;65.68;100620.31;5076966;28;20210;-73
2023/07/20 01:57:16;;;;;;;1.17;1.10;;;17.30;93.50;;;17.22;66.38;100624.28;5076718;28;20755;-72
2023/07/20 01:59:50;;;;;;;2.30;1.00;;;17.40;93.50;;;17.27;65.42;100623.66;5076950;28;20293;-72
2023/07/20 02:02:24;;;;;;;1.30;1.10;;;17.50;93.30;;;17.19;65.81;100628.22;5077022;28;20194;-72
2023/07/20 02:04:57;;;;;;;1.43;1.23;;;17.30;93.30;;;17.22;65.70;100624.28;5076823;28;20185;-72
2023/07/20 02:07:29;;;;;;;1.77;1.20;;;17.40;93.40;;;17.13;66.07;100623.63;5076349;28;20274;-72
2023/07/20 02:10:01;;;;;;;1.30;1.10;;;17.30;93.50;;;17.15;66.31;100618.03;5076682;28;20190;-72
2023/07/20 02:12:33;;;;;;;1.23;1.13;;;17.30;93.70;;;16.99;65.93;100632.75;5076718;28;20194;-72
2023/07/20 02:15:05;;;;;;;1.53;1.20;;;17.20;93.60;;;16.96;67.65;100627.75;5076547;28;20296;-73
2023/07/20 02:17:40;;;;;;;2.23;1.50;;;17.10;94.20;;;16.87;67.61;100636.25;5076494;28;20257;-73
2023/07/20 02:20:13;;;;;;;1.80;1.10;;;17.00;94.20;;;16.89;67.29;100635.03;5076210;28;20189;-73
2023/07/20 02:22:45;;;;;;;2.57;1.40;;;17.00;94.70;;;16.91;67.00;100629.41;5076198;28;20190;-73
2023/07/20 02:25:17;;;;;;;2.50;1.40;;;17.10;94.40;;;16.97;67.71;100628.59;5076356;28;20186;-73
2023/07/20 02:27:49;;;;;;;2.17;1.40;;;17.20;94.60;;;16.94;67.07;100629.00;5076411;28;20228;-73
2023/07/20 02:30:21;;;;;;;1.60;1.50;;;17.10;94.50;;;16.99;67.33;100623.81;5076352;28;20280;-73
2023/07/20 02:32:54;;;;;;;3.40;1.47;;;17.20;94.40;;;16.97;67.33;100628.59;5076284;28;20285;-73
2023/07/20 02:35:26;;;;;;;1.80;1.37;;;17.20;94.50;;;16.96;67.98;100626.91;5076096;28;20206;-72
2023/07/20 02:37:58;;;;;;;2.70;1.47;;;17.10;94.80;;;16.98;66.92;100627.56;5076212;28;20194;-72
2023/07/20 02:40:30;;;;;;;2.40;1.20;;;17.20;94.50;;;16.96;67.48;100632.31;5076167;28;20285;-72
2023/07/20 02:43:02;;;;;;;2.80;1.40;;;17.20;94.50;;;16.97;66.91;100628.59;5075827;28;20236;-72
2023/07/20 02:45:34;;;;;;;1.90;1.70;;;17.10;94.60;;;16.92;68.41;100636.50;5076036;28;20308;-72
2023/07/20 02:48:07;;;;;;;2.00;1.50;;;17.10;95.20;;;16.82;68.04;100636.03;5076038;28;20185;-72
2023/07/20 02:50:39;;;;;;;1.30;1.20;;;17.00;95.10;;;16.77;69.00;100633.13;5075990;28;20186;-73
2023/07/20 02:53:11;;;;;;;1.90;1.40;;;17.00;95.20;;;16.82;68.40;100636.88;5076344;28;20289;-73
2023/07/20 02:55:43;;;;;;;1.93;1.47;;;17.10;95.10;;;16.77;69.39;100638.53;5075032;28;20320;-73
2023/07/20 02:58:15;;;;;;;2.23;1.40;;;17.00;95.20;;;16.70;68.36;100642.03;5075939;28;20202;-73
2023/07/20 03:00:47;;;;;;;1.60;1.50;;;16.90;95.30;;;16.70;69.44;100646.63;5076343;28;20281;-73
2023/07/20 03:03:20;;;;;;;1.50;1.20;;;16.90;95.50;;;16.75;68.80;100635.19;5075841;28;20193;-73
2023/07/20 03:05:54;;;;;;;1.80;1.37;;;17.00;95.90;;;16.79;69.31;100639.13;5075344;28;20256;-73
2023/07/20 03:08:26;;;;;;;2.30;1.40;;;17.00;95.70;;;16.79;69.33;100637.28;5075701;28;20268;-72
2023/07/20 03:10:58;;;;;;;1.40;1.30;;;17.00;95.70;;;16.81;69.02;100645.19;5075656;28;20185;-72
2023/07/20 03:13:30;;;;;;;1.37;1.20;;;17.10;95.70;;;16.72;69.35;100650.78;5075741;28;20289;-72
2023/07/20 03:16:02;;;;;;;2.13;1.53;;;16.90;95.80;;;16.71;69.96;100640.19;5075357;28;20320;-72
2023/07/20 03:18:35;;;;;;;2.10;1.73;;;16.90;95.90;;;16.66;69.38;100643.47;5075509;28;20255;-72
2023/07/20 03:21:08;;;;;;;3.23;1.57;;;16.90;95.90;;;16.65;69.51;100652.63;5075442;28;20273;-72
2023/07/20 03:23:41;;;;;;;1.60;1.50;;;16.80;96.10;;;16.61;70.13;100645.13;5075403;28;20276;-72
2023/07/20 03:26:13;;;;;;;1.47;1.37;;;16.80;96.20;;;16.61;70.55;100645.94;5075027;28;20710;-72
2023/07/20 03:28:45;;;;;;;3.33;1.80;;;16.80;96.30;;;16.55;70.43;100638.66;5075254;28;20224;-72
2023/07/20 03:31:17;;;;;;;2.07;1.70;;;16.80;96.20;;;16.53;70.74;100632.59;5075264;28;20189;-72
2023/07/20 03:33:50;;;;;;;2.70;1.70;;;16.70;96.30;;;16.50;70.77;100637.56;5075067;28;20190;-72
2023/07/20 03:36:22;;;;;;;2.27;1.63;;;16.70;96.40;;;16.54;70.44;100636.13;5074530;28;20756;-72
2023/07/20 03:38:54;;;;;;;2.30;1.60;;;16.70;96.50;;;16.49;70.46;100636.72;5075124;28;20204;-72
2023/07/20 03:41:27;;;;;;;3.03;1.60;;;16.70;96.50;;;16.51;70.20;100639.19;5074947;28;20641;-72
2023/07/20 03:44:01;;;;;;;1.70;1.27;;;16.70;96.50;;;16.51;70.49;100634.63;5074515;28;20685;-73
2023/07/20 03:46:33;;;;;;;3.27;1.57;;;16.70;96.80;;;16.51;70.40;100631.94;5074740;28;20225;-72
2023/07/20 03:49:08;;;;;;;4.70;3.73;;;16.70;96.60;;;16.51;70.61;100636.50;5074848;28;20190;-72
2023/07/20 03:51:40;;;;;;;2.03;1.60;;;16.70;96.40;;;16.52;70.06;100639.03;5074819;28;20284;-72
2023/07/20 03:54:12;;;;;;;2.10;1.90;;;16.70;96.30;;;16.58;69.03;100640.94;5074811;28;20272;-73
2023/07/20 03:56:44;;;;;;;1.73;1.60;;;16.90;96.20;;;16.59;70.01;100636.38;5075240;28;20263;-73
2023/07/20 03:59:17;;;;;;;2.60;1.70;;;16.80;96.30;;;16.59;69.23;100637.22;5074703;28;20272;-73
2023/07/20 04:01:48;;;;;;;2.40;1.60;;;16.90;96.60;;;16.59;69.44;100637.22;5074636;28;20244;-73
2023/07/20 04:04:22;;;;;;;4.00;1.87;;;16.80;96.20;;;16.59;69.83;100637.22;5074620;28;20217;-73
2023/07/20 04:06:54;;;;;;;3.33;1.70;;;16.80;96.20;;;16.59;70.27;100642.63;5073861;28;20828;-73
2023/07/20 04:09:26;;;;;;;1.70;1.60;;;16.80;96.80;;;16.56;70.80;100642.19;5074461;28;20284;-73
2023/07/20 04:11:58;;;;;;;4.73;2.10;;;16.80;96.50;;;16.55;69.98;100644.06;5074436;28;20281;-73
2023/07/20 04:14:29;;;;;;;4.30;2.00;;;16.80;96.60;;;16.55;70.37;100644.06;5073939;28;20197;-72
2023/07/20 04:17:01;;;;;;;3.40;1.90;;;16.80;96.80;;;16.57;70.30;100644.69;5074247;28;20295;-72
2023/07/20 04:19:35;;;;;;;6.13;2.00;;;16.80;96.90;;;16.54;71.16;100645.03;5073934;28;20646;-73
2023/07/20 04:22:07;;;;;;;4.37;2.07;;;16.80;96.90;;;16.57;71.27;100639.28;5074259;28;20280;-73
2023/07/20 04:24:38;;;;;;;4.33;2.37;;;16.80;96.90;;;16.57;70.94;100644.69;5074035;28;20213;-73
2023/07/20 04:27:10;;;;;;;5.37;2.17;;;16.80;96.70;;;16.58;70.44;100638.25;5074046;28;20663;-73
2023/07/20 04:29:42;;;;;;;5.07;2.23;;;16.90;96.60;;;16.55;71.02;100644.06;5074095;28;20190;-73
2023/07/20 04:32:14;;;;;;;5.00;2.13;;;16.80;96.80;;;16.54;70.93;100641.53;5074061;28;20196;-73
2023/07/20 04:34:47;;;;;;;4.90;2.33;;;16.80;97.10;;;16.54;70.49;100652.34;5073566;28;20670;-73
2023/07/20 04:37:19;;;;;;;5.80;2.63;;;16.80;97.00;;;16.50;70.59;100656.47;5073651;28;20261;-73
2023/07/20 04:39:51;;;;;;;4.47;2.43;;;16.70;96.70;;;16.52;70.66;100662.50;5074000;28;20600;-73
2023/07/20 04:42:23;;;;;;;4.97;3.00;;;16.80;97.10;;;16.53;71.19;100656.06;5073830;28;20220;-73
2023/07/20 04:44:55;;;;;;;3.00;2.60;;;16.80;97.30;;;16.52;71.70;100666.03;5073853;28;20227;-73
2023/07/20 04:47:27;;;;;;;3.83;2.60;;;16.80;97.50;;;16.50;71.68;100670.81;5074273;28;20221;-72
2023/07/20 04:50:00;;;;;;;5.33;2.43;;;16.80;97.50;;;16.46;72.96;100664.16;5073448;28;20191;-72
2023/07/20 04:52:32;;;;;;;4.10;3.33;;;16.70;98.00;;;16.46;74.26;100669.56;5073779;28;20221;-74
2023/07/20 04:55:13;;;;;;;5.33;3.50;;;16.70;98.80;;;16.46;74.86;100669.56;5073461;28;20292;-74
2023/07/20 04:57:45;;;;;;;5.77;3.80;;;16.70;99.00;;;16.40;76.38;100678.47;5073685;28;20216;-74
2023/07/20 05:00:21;;;;;;;3.73;3.37;;;16.60;99.80;;;16.37;75.79;100673.44;5073325;28;20276;-74
2023/07/20 05:02:53;;;;;;;4.67;3.20;;;16.60;99.80;;;16.41;75.67;100676.56;5073688;28;20228;-73
2023/07/20 05:05:26;;;;;;;4.37;3.57;;;16.60;99.90;;;16.38;76.13;100675.13;5073505;28;20189;-73
2023/07/20 05:07:58;;;;;;;6.23;3.57;;;16.60;99.90;;;16.35;76.13;100672.81;5073631;28;20190;-73
2023/07/20 05:10:30;;;;;;;6.63;3.67;;;16.60;99.90;;;16.40;76.15;100674.94;5073469;28;20281;-72
2023/07/20 05:13:02;;;;;;;4.17;3.43;;;16.60;99.90;;;16.31;76.65;100679.63;5073177;28;20219;-72
2023/07/20 05:15:36;;;;;;;6.33;3.50;;;16.60;99.90;;;16.33;76.42;100674.88;5073034;28;20233;-73
2023/07/20 05:18:08;;;;;;;5.47;3.37;;;16.60;99.90;;;16.28;75.93;100682.75;5073197;28;20193;-72
2023/07/20 05:20:42;;;;;;;4.63;3.33;;;16.50;99.90;;;16.18;77.44;100688.50;5074416;28;20623;-72
2023/07/20 05:23:13;;;;;;;3.00;2.77;;;16.40;99.90;;;16.10;77.48;100685.13;5074427;28;20198;-73
2023/07/20 05:25:45;;;;;;;3.33;3.03;;;16.30;99.90;;;16.08;77.08;100679.91;5072990;28;20564;-73
2023/07/20 05:28:17;;;;;;;3.80;3.13;;;16.30;99.90;;;16.04;76.60;100691.31;5073388;28;20194;-73
2023/07/20 05:30:52;;;;;;;4.57;3.17;;;16.30;99.90;;;16.02;77.50;100688.81;5073353;28;20281;-73
2023/07/20 05:33:24;;;;;;;2.93;2.63;;;16.20;99.90;;;15.98;77.97;100695.63;5073376;28;20217;-73
2023/07/20 05:35:57;;;;;;;3.30;3.00;;;16.20;99.90;;;15.89;78.66;100701.38;5072849;28;20600;-73
2023/07/20 05:38:29;;;;;;;3.30;2.87;;;16.10;99.90;;;15.86;79.62;100699.06;5073276;28;20225;-73
2023/07/20 05:41:10;;;;;;;3.57;2.63;;;16.10;99.90;;;15.77;79.79;100702.94;5072908;28;20631;-73
2023/07/20 05:43:42;;;;;;;3.23;2.93;;;16.00;99.90;;;15.84;79.25;100701.13;5072880;28;20681;-72
2023/07/20 05:46:14;;;;;;;3.57;3.27;;;16.10;99.90;;;15.85;79.29;100702.81;5073133;28;20716;-73
2023/07/20 05:48:45;;;;;;;4.07;3.67;;;16.10;99.90;;;15.87;78.49;100706.13;5073189;28;20185;-73
2023/07/20 05:51:19;;;;;;;3.77;3.23;;;16.10;99.90;;;15.86;79.17;100699.88;5073151;28;20204;-73
2023/07/20 05:53:50;;;;;;;4.30;3.20;;;16.10;99.90;;;15.90;79.97;100700.34;5073151;28;20237;-73
2023/07/20 05:56:22;;;;;;;3.93;3.53;;;16.20;99.90;;;15.87;79.38;100708.81;5072708;28;20265;-73
2023/07/20 05:58:55;;;;;;;3.80;3.40;;;16.10;99.90;;;15.89;80.05;100698.69;5073123;28;20194;-73
2023/07/20 06:01:28;;;;;;;4.67;3.40;;;16.10;99.90;;;15.91;79.52;100712.81;5072755;28;20280;-73
2023/07/20 06:03:59;;;;;;;3.43;3.13;;;16.20;99.90;;;15.92;79.26;100714.50;5072730;28;20247;-73
2023/07/20 06:06:33;;;;;;;3.50;3.23;;;16.20;99.90;;;15.90;79.90;100721.94;5072929;28;20252;-73
2023/07/20 06:09:09;;;;;;;3.50;3.20;;;16.10;99.90;;;15.86;79.18;100721.50;5072977;28;20194;-73
2023/07/20 06:11:42;;;;;;;3.30;3.00;;;16.10;99.90;;;15.90;79.89;100716.53;5072669;28;20638;-73
2023/07/20 06:14:15;;;;;;;3.43;3.13;;;16.20;99.90;;;15.80;81.22;100716.03;5072928;28;20255;-73
2023/07/20 06:16:47;;;;;;;3.63;3.33;;;16.10;99.90;;;15.84;80.13;100720.84;5072785;28;20267;-73
2023/07/20 06:19:19;;;;;;;3.90;3.50;;;16.10;99.90;;;15.73;81.14;100722.22;5072913;28;20198;-73
2023/07/20 06:21:52;;;;;;;4.57;3.43;;;16.00;99.90;;;15.80;81.41;100716.03;5072621;28;20202;-72
2023/07/20 06:24:24;;;;;;;4.03;3.60;;;16.00;99.90;;;15.82;81.46;100714.84;5072869;28;20297;-73
2023/07/20 06:26:56;;;;;;;3.87;3.57;;;16.10;99.90;;;15.88;81.65;100707.81;5072759;28;20282;-73
2023/07/20 06:29:28;;;;;;;4.43;4.00;;;16.10;99.90;;;15.86;81.64;100715.25;5073624;28;20217;-73
2023/07/20 06:31:59;;;;;;;4.20;3.80;;;16.10;99.90;;;15.87;81.39;100714.22;5076519;28;20194;-73
2023/07/20 06:34:36;;;;;;;4.77;3.77;;;16.10;99.90;;;15.87;81.68;100719.63;5076085;28;20673;-73
2023/07/20 06:37:10;;;;;;;4.23;3.83;;;16.20;99.90;;;15.86;81.69;100705.28;5076127;28;20619;-73
2023/07/20 06:39:42;;;;;;;4.43;4.03;;;16.10;99.90;;;15.80;82.47;100713.34;5075906;28;20662;-73
2023/07/20 06:42:16;;;;;;;4.90;4.40;;;16.10;99.90;;;15.89;81.62;100714.88;5076037;28;20296;-73
2023/07/20 06:44:48;;;;;;;4.40;4.00;;;16.20;99.90;;;15.95;81.50;100720.34;5076114;28;20272;-72
2023/07/20 06:47:20;;;;;;;6.13;4.47;;;16.20;99.90;;;15.76;81.63;100709.34;5076006;28;20312;-71
2023/07/20 06:49:52;;;;;;;4.77;4.40;;;16.00;99.90;;;15.75;82.81;100719.34;5076053;28;20196;-72
2023/07/20 06:52:25;;;;;;;5.23;4.50;;;16.00;99.90;;;15.82;81.95;100730.19;5076174;28;20563;-72
2023/07/20 06:54:57;;;;;;;4.10;3.80;;;16.10;99.90;;;15.91;81.94;100737.13;5075959;28;20288;-72
2023/07/20 06:57:33;;;;;;;5.07;4.17;;;16.20;99.90;;;16.00;82.37;100735.94;5075806;28;20370;-72
2023/07/20 07:00:06;;;;;;;5.30;4.67;;;16.30;99.90;;;15.90;82.75;100740.84;5075843;28;20217;-72
2023/07/20 07:02:38;;;;;;;5.23;4.83;;;16.30;99.90;;;15.84;81.57;100742.47;5075834;28;20193;-72
2023/07/20 07:05:13;;;;;;;5.30;4.90;;;16.20;99.90;;;15.85;82.39;100748.69;5075411;28;20281;-72
2023/07/20 07:07:49;;;;;;;5.43;4.93;;;16.20;99.90;;;15.84;80.68;100749.72;5075705;28;20194;-72
2023/07/20 07:10:21;;;;;;;6.27;5.77;;;16.20;99.90;;;15.77;81.78;100744.25;5075674;28;20220;-72
2023/07/20 07:12:53;;;;;;;5.63;5.13;;;16.10;99.90;;;15.65;82.07;100752.03;5075624;28;20273;-72
2023/07/20 07:15:25;;;;;;;5.50;4.93;;;16.00;99.90;;;15.71;80.39;100747.75;5075303;28;20228;-72
2023/07/20 07:17:59;;;;;;;5.20;4.77;;;16.10;99.90;;;15.83;80.60;100748.03;5075462;28;20214;-72
2023/07/20 07:20:30;;;;;;;5.27;4.80;;;16.20;99.90;;;15.88;80.14;100745.59;5075454;28;20247;-72
2023/07/20 07:23:04;;;;;;;4.83;4.40;;;16.20;99.90;;;15.97;80.35;100747.13;5075397;28;20196;-73
2023/07/20 07:25:36;;;;;;;4.50;4.20;;;16.30;99.90;;;16.03;80.68;100738.25;5075297;28;20260;-72
2023/07/20 07:28:07;;;;;;;4.60;4.20;;;16.40;99.90;;;16.01;78.55;100746.56;5075301;28;20277;-72
2023/07/20 07:30:39;;;;;;;3.90;3.60;;;16.40;99.90;;;16.06;77.94;100744.09;5075493;28;20280;-72
2023/07/20 07:33:11;;;;;;;3.60;3.30;;;16.40;99.90;;;16.11;77.33;100747.03;5075185;28;20290;-72
2023/07/20 07:35:44;;;;;;;4.20;3.40;;;16.50;99.90;;;16.21;77.23;100746.69;5075088;28;20312;-72
2023/07/20 07:38:18;;;;;;;3.83;3.20;;;16.60;99.90;;;16.26;76.42;100757.75;5075020;28;20304;-72
2023/07/20 07:41:10;;;;;;;3.23;3.00;;;16.60;99.90;;;16.27;76.68;100762.13;5074206;28;20583;-72
2023/07/20 07:43:41;;;;;;;5.27;3.30;;;16.60;99.90;;;16.37;77.62;100746.38;5074602;28;20209;-72
2023/07/20 07:46:14;;;;;;;2.80;2.60;;;16.70;99.90;;;16.45;77.76;100761.63;5074872;28;20308;-72
2023/07/20 07:48:46;;;;;;;3.23;2.03;;;16.90;99.90;;;16.43;75.56;100759.13;5074864;28;20225;-73
2023/07/20 07:51:18;;;;;;;2.17;1.97;;;16.80;99.90;;;16.47;73.51;100762.28;5074803;28;20228;-73
2023/07/20 07:53:51;;;;;;;3.67;2.30;;;16.90;99.70;;;16.56;74.03;100748.44;5074768;28;20280;-73
2023/07/20 07:56:23;;;;;;;2.73;2.20;;;17.00;99.90;;;16.61;73.48;100753.25;5074584;28;20232;-73
2023/07/20 07:58:59;;;;;;;3.53;1.77;;;17.10;99.50;;;16.61;73.96;100758.66;5074355;28;20212;-73
2023/07/20 08:01:31;;;;;;;1.73;1.40;;;17.10;99.40;;;16.57;72.26;100771.72;5074611;28;20268;-73
2023/07/20 08:04:03;;;;;;;1.97;1.40;;;17.00;98.70;;;16.57;71.88;100771.72;5074564;28;20196;-73
2023/07/20 08:06:35;;;;;;;3.07;1.60;;;17.00;98.50;;;16.63;71.19;100768.22;5074137;28;20786;-73
2023/07/20 08:09:08;;;;;;;2.07;1.73;;;17.10;98.50;;;16.80;71.52;100770.59;5074486;28;20282;-73
2023/07/20 08:11:41;;;;;;;1.60;1.50;;;17.20;98.30;;;16.87;69.43;100766.06;5074416;28;20200;-73
2023/07/20 08:14:13;;;;;;;2.80;1.27;;;17.30;97.30;;;17.02;66.83;100772.19;5074356;28;20190;-72
2023/07/20 08:16:45;;;;;;;1.70;1.10;;;17.50;95.80;;;17.07;65.75;100764.28;5074136;28;20253;-72
2023/07/20 08:19:17;;;;;;;1.00;1.00;;;17.60;95.20;;;17.15;66.03;100769.53;5073947;28;20189;-72
2023/07/20 08:21:49;;;;;;;1.83;0.90;;;17.60;95.20;;;17.22;64.12;100773.09;5073870;28;20654;-72
2023/07/20 08:24:22;;;;;;;3.23;1.30;;;17.70;94.20;;;17.27;63.26;100767.06;5074153;28;20308;-72
2023/07/20 08:26:54;;;;;;;2.63;1.33;;;17.70;93.80;;;17.39;64.27;100769.00;5073792;28;20247;-72
2023/07/20 08:29:27;;;;;;;2.87;1.33;;;17.90;93.80;;;17.48;64.86;100770.47;5074065;28;20190;-72
2023/07/20 08:31:59;;;;;;;1.70;1.30;;;18.00;94.20;;;17.54;64.42;100769.63;5074087;28;20203;-72
2023/07/20 08:34:31;;;;;;;2.57;1.30;;;18.00;94.00;;;17.55;62.77;100768.59;5073694;28;20736;-72
2023/07/20 08:37:03;;;;;;;2.60;1.27;;;18.00;92.60;;;17.53;61.19;100770.69;5073788;28;20236;-72
2023/07/20 08:39:37;;;;;;;1.40;1.30;;;18.00;92.60;;;17.55;62.02;100778.59;5073966;28;20217;-71
2023/07/20 08:42:11;;;;;;;1.40;1.30;;;18.00;92.50;;;17.56;63.70;100781.16;5074026;28;20253;-73
2023/07/20 08:44:44;;;;;;;1.97;1.40;;;18.00;93.30;;;17.51;63.15;100780.88;5074493;28;20548;-73
2023/07/20 08:47:19;;;;;;;2.03;1.40;;;18.00;93.10;;;17.52;62.11;100779.00;5073500;28;20254;-72
2023/07/20 08:49:55;;;;;;;1.60;1.27;;;17.90;92.40;;;17.54;62.32;100777.75;5073729;28;20276;-72
2023/07/20 08:52:28;;;;;;;2.57;1.30;;;18.00;92.60;;;17.58;60.23;100779.06;5073335;28;20281;-72
2023/07/20 08:55:03;;;;;;;4.47;1.37;;;18.00;90.90;;;17.70;60.36;100777.44;5073163;28;20718;-72
2023/07/20 08:57:37;;;;;;;2.90;1.30;;;18.10;91.40;;;17.83;56.80;100771.19;5073599;28;20264;-72
2023/07/20 09:00:12;;;;;;;1.97;1.20;;;18.30;88.80;;;17.96;58.47;100770.34;5073355;28;20616;-72
2023/07/20 09:02:46;;;;;;;2.00;1.40;;;18.40;90.20;;;18.13;58.89;100774.31;5073642;28;20244;-72
2023/07/20 09:05:18;;;;;;;2.77;1.33;;;18.60;91.10;;;18.10;55.40;100761.19;5073502;28;20243;-72
2023/07/20 09:07:51;;;;;;;2.17;1.40;;;18.60;86.20;;;18.06;56.03;100771.63;5073269;28;20527;-72
2023/07/20 09:10:26;;;;;;;1.40;1.30;;;18.50;86.60;;;18.10;57.16;100767.44;5073564;28;20221;-72
2023/07/20 09:12:59;;;;;;;1.50;1.40;;;18.50;87.40;;;18.17;57.75;100770.16;5073512;28;20188;-72
2023/07/20 09:15:32;;;;;;;2.93;1.10;;;18.60;88.90;;;18.30;56.88;100769.31;5073432;28;20244;-72
2023/07/20 09:18:07;;;;;;;2.13;1.27;;;18.80;87.80;;;18.42;57.57;100765.78;5073413;28;20321;-72
2023/07/20 09:20:39;;;;;;;1.47;1.20;;;18.90;88.30;;;18.59;56.02;100756.19;5073447;28;20560;-72
2023/07/20 09:23:11;;;;;;;2.63;1.40;;;19.10;87.40;;;18.69;55.76;100750.31;5074021;28;20604;-72
2023/07/20 09:25:45;;;;;;;1.33;1.20;;;19.20;87.00;;;18.66;55.00;100767.81;5073322;28;20597;-72
2023/07/20 09:28:18;;;;;;;1.93;1.13;;;19.10;84.90;;;18.63;56.82;100770.94;5073413;28;20220;-72
2023/07/20 09:30:50;;;;;;;2.07;1.20;;;19.00;86.90;;;18.63;55.86;100768.25;5073375;28;20198;-72
2023/07/20 09:33:27;;;;;;;2.70;1.50;;;19.10;85.90;;;18.60;56.96;100767.84;5073333;28;20634;-72
2023/07/20 09:36:05;;;;;;;5.03;1.40;;;19.00;87.80;;;18.55;55.09;100776.63;5073199;28;20229;-72
2023/07/20 09:38:57;;;;;;;1.67;1.20;;;19.00;85.50;;;18.56;55.66;100764.72;5073146;28;20228;-72
2023/07/20 09:41:40;;;;;;;3.40;1.30;;;19.00;85.30;;;18.57;53.35;100779.09;5073264;28;20235;-72
2023/07/20 09:44:19;;;;;;;2.63;1.00;;;19.00;82.40;;;18.64;52.95;100771.78;5073252;28;20196;-73
2023/07/20 09:46:56;;;;;;;1.20;1.00;;;19.10;82.40;;;18.82;51.81;100768.41;5073124;28;20311;-73
2023/07/20 09:49:30;;;;;;;3.13;1.10;;;19.20;80.20;;;18.85;52.55;100773.41;5073204;28;20587;-72
2023/07/20 09:52:23;;;;;;;2.33;1.10;;;19.30;80.60;;;18.90;53.51;100763.59;5073228;28;20201;-72
2023/07/20 09:54:59;;;;;;;1.30;1.07;;;19.30;82.50;;;19.16;52.36;100773.50;5072875;28;20618;-72
2023/07/20 09:57:33;;;;;;;1.43;1.17;;;19.60;81.50;;;19.22;51.45;100761.78;5072932;28;20256;-72
2023/07/20 10:00:13;;;;;;;1.00;1.00;;;19.70;79.70;;;19.31;50.61;100765.94;5073084;28;20536;-72
2023/07/20 10:02:52;;;;;;;1.27;1.10;;;19.70;78.10;;;19.41;49.95;100760.91;5073072;28;20272;-72
2023/07/20 10:05:25;;;;;;;3.03;1.20;;;19.80;78.10;;;19.40;51.82;100758.34;5075274;28;20189;-72
2023/07/20 10:07:59;;;;;;;2.07;1.00;;;19.80;79.80;;;19.52;46.41;100762.91;5076492;28;20193;-72
2023/07/20 10:10:35;;;;;;;1.73;0.93;;;20.00;73.00;;;19.61;44.93;100771.63;5076706;28;20280;-72
2023/07/20 10:13:11;;;;;;;1.73;1.17;;;20.10;70.50;;;19.67;47.34;100771.59;5076700;28;20189;-72
2023/07/20 10:15:51;;;;;;;1.77;1.00;;;20.10;72.20;;;19.85;46.70;100762.69;5076591;28;20225;-72
2023/07/20 10:18:30;;;;;;;2.27;1.03;;;20.30;72.30;;;19.92;49.35;100768.09;5076193;28;20571;-72
2023/07/20 10:21:06;;;;;;;2.87;1.10;;;20.40;75.70;;;19.82;47.90;100774.00;5076561;28;20185;-72
2023/07/20 10:23:43;;;;;;;1.93;1.10;;;20.30;73.50;;;19.82;50.22;100774.00;5076528;28;20296;-72
2023/07/20 10:26:16;;;;;;;2.40;1.10;;;20.20;76.50;;;19.82;48.91;100773.16;5076422;28;20226;-72
2023/07/20 10:28:50;;;;;;;1.10;0.80;;;20.20;75.20;;;19.87;48.12;100765.19;5076060;28;20713;-72
2023/07/20 10:31:24;;;;;;;0.93;0.80;;;20.30;74.10;;;19.97;48.78;100755.47;5076107;28;20699;-72
2023/07/20 10:33:57;;;;;;;1.47;1.07;;;20.30;74.40;;;20.10;48.51;100762.72;5076330;28;20194;-73
2023/07/20 10:36:32;;;;;;;1.50;0.93;;;20.50;74.80;;;20.02;47.96;100762.97;5076243;28;20260;-72
2023/07/20 10:39:04;;;;;;;2.93;1.03;;;20.40;73.10;;;19.96;47.94;100761.16;5075889;28;20680;-72